sensor_id;sensor_type;location;lat;lon;timestamp;pressure;altitude;pressure_sealevel;temperature;humidity
54920;BME280;63804;53.120;8.764;2023-03-20T00:01:14;101789.47;;;9.27;75.14
54920;BME280;63804;53.120;8.764;2023-03-20T00:03:40;101784.00;;;9.30;74.97
54920;BME280;63804;53.120;8.764;2023-03-20T00:06:16;101787.50;;;9.30;74.67
54920;BME280;63804;53.120;8.764;2023-03-20T00:08:43;101788.25;;;9.32;74.70
54920;BME280;63804;53.120;8.764;2023-03-20T00:11:34;101784.84;;;9.30;74.84
54920;BME280;63804;53.120;8.764;2023-03-20T00:14:12;101795.47;;;9.30;74.81
54920;BME280;63804;53.120;8.764;2023-03-20T00:16:41;101797.72;;;9.22;75.03
54920;BME280;63804;53.120;8.764;2023-03-20T00:19:14;101798.25;;;9.13;75.52
54920;BME280;63804;53.120;8.764;2023-03-20T00:21:42;101798.53;;;9.08;75.60
54920;BME280;63804;53.120;8.764;2023-03-20T00:24:07;101793.63;;;9.16;75.49
54920;BME280;63804;53.120;8.764;2023-03-20T00:26:34;101795.75;;;9.26;74.90
54920;BME280;63804;53.120;8.764;2023-03-20T00:29:02;101798.38;;;9.26;74.57
54920;BME280;63804;53.120;8.764;2023-03-20T00:31:34;101788.50;;;9.13;74.82
54920;BME280;63804;53.120;8.764;2023-03-20T00:34:02;101803.38;;;9.16;74.56
54920;BME280;63804;53.120;8.764;2023-03-20T00:36:28;101793.91;;;9.12;74.15
54920;BME280;63804;53.120;8.764;2023-03-20T00:38:54;101787.56;;;9.14;73.70
54920;BME280;63804;53.120;8.764;2023-03-20T00:41:30;101793.78;;;9.13;73.82
54920;BME280;63804;53.120;8.764;2023-03-20T00:44:19;101792.38;;;9.08;74.12
54920;BME280;63804;53.120;8.764;2023-03-20T00:46:48;101795.03;;;9.08;73.97
54920;BME280;63804;53.120;8.764;2023-03-20T00:49:15;101793.22;;;9.08;73.91
54920;BME280;63804;53.120;8.764;2023-03-20T00:51:40;101796.63;;;9.10;73.58
54920;BME280;63804;53.120;8.764;2023-03-20T00:54:14;101787.06;;;9.08;74.06
54920;BME280;63804;53.120;8.764;2023-03-20T00:57:23;101801.06;;;9.10;73.72
54920;BME280;63804;53.120;8.764;2023-03-20T00:59:58;101796.72;;;9.09;73.76
54920;BME280;63804;53.120;8.764;2023-03-20T01:02:26;101793.13;;;9.10;73.66
54920;BME280;63804;53.120;8.764;2023-03-20T01:04:53;101797.28;;;9.14;73.50
54920;BME280;63804;53.120;8.764;2023-03-20T01:07:19;101800.72;;;9.16;73.47
54920;BME280;63804;53.120;8.764;2023-03-20T01:09:44;101800.41;;;9.06;74.13
54920;BME280;63804;53.120;8.764;2023-03-20T01:12:12;101802.19;;;9.06;74.16
54920;BME280;63804;53.120;8.764;2023-03-20T01:14:50;101804.19;;;9.02;74.44
54920;BME280;63804;53.120;8.764;2023-03-20T01:17:18;101801.91;;;8.96;74.90
54920;BME280;63804;53.120;8.764;2023-03-20T01:19:44;101809.94;;;8.94;75.11
54920;BME280;63804;53.120;8.764;2023-03-20T01:22:10;101809.06;;;8.94;75.19
54920;BME280;63804;53.120;8.764;2023-03-20T01:24:38;101810.13;;;8.91;75.56
54920;BME280;63804;53.120;8.764;2023-03-20T01:27:04;101816.03;;;8.81;76.28
54920;BME280;63804;53.120;8.764;2023-03-20T01:29:36;101820.81;;;8.74;76.63
54920;BME280;63804;53.120;8.764;2023-03-20T01:32:01;101823.13;;;8.64;77.24
54920;BME280;63804;53.120;8.764;2023-03-20T01:34:26;101821.38;;;8.65;77.05
54920;BME280;63804;53.120;8.764;2023-03-20T01:36:55;101824.25;;;8.60;77.13
54920;BME280;63804;53.120;8.764;2023-03-20T01:39:27;101831.50;;;8.57;77.17
54920;BME280;63804;53.120;8.764;2023-03-20T01:41:55;101832.28;;;8.59;77.37
54920;BME280;63804;53.120;8.764;2023-03-20T01:44:29;101832.19;;;8.60;77.11
54920;BME280;63804;53.120;8.764;2023-03-20T01:46:55;101825.47;;;8.55;76.94
54920;BME280;63804;53.120;8.764;2023-03-20T01:51:47;101834.09;;;8.58;76.45
54920;BME280;63804;53.120;8.764;2023-03-20T01:54:23;101835.03;;;8.57;76.09
54920;BME280;63804;53.120;8.764;2023-03-20T01:56:56;101837.00;;;8.54;76.26
54920;BME280;63804;53.120;8.764;2023-03-20T01:59:28;101824.69;;;8.53;75.41
54920;BME280;63804;53.120;8.764;2023-03-20T02:01:56;101832.22;;;8.44;75.59
54920;BME280;63804;53.120;8.764;2023-03-20T02:04:26;101826.00;;;8.45;75.76
54920;BME280;63804;53.120;8.764;2023-03-20T02:06:53;101829.22;;;8.51;75.63
54920;BME280;63804;53.120;8.764;2023-03-20T02:09:18;101832.13;;;8.46;75.65
54920;BME280;63804;53.120;8.764;2023-03-20T02:11:45;101828.81;;;8.42;75.85
54920;BME280;63804;53.120;8.764;2023-03-20T02:14:11;101831.47;;;8.42;75.92
54920;BME280;63804;53.120;8.764;2023-03-20T02:16:37;101827.28;;;8.38;76.20
54920;BME280;63804;53.120;8.764;2023-03-20T02:19:05;101829.41;;;8.32;76.26
54920;BME280;63804;53.120;8.764;2023-03-20T02:38:00;101823.31;;;8.30;76.14
54920;BME280;63804;53.120;8.764;2023-03-20T02:43:00;101816.00;;;8.35;75.61
54920;BME280;63804;53.120;8.764;2023-03-20T02:45:35;101813.59;;;8.30;75.19
54920;BME280;63804;53.120;8.764;2023-03-20T02:50:43;101815.47;;;8.28;74.95
54920;BME280;63804;53.120;8.764;2023-03-20T02:53:24;101813.59;;;8.30;74.81
54920;BME280;63804;53.120;8.764;2023-03-20T02:56:05;101804.88;;;8.28;74.73
54920;BME280;63804;53.120;8.764;2023-03-20T02:58:47;101804.97;;;8.27;74.56
54920;BME280;63804;53.120;8.764;2023-03-20T03:01:20;101797.88;;;8.27;74.62
54920;BME280;63804;53.120;8.764;2023-03-20T03:04:04;101800.53;;;8.27;74.48
54920;BME280;63804;53.120;8.764;2023-03-20T03:06:35;101780.97;;;8.30;74.33
54920;BME280;63804;53.120;8.764;2023-03-20T03:09:08;101788.91;;;8.30;74.28
54920;BME280;63804;53.120;8.764;2023-03-20T03:11:40;101780.91;;;8.31;74.04
54920;BME280;63804;53.120;8.764;2023-03-20T03:14:13;101777.47;;;8.29;74.01
54920;BME280;63804;53.120;8.764;2023-03-20T03:16:43;101786.34;;;8.28;74.07
54920;BME280;63804;53.120;8.764;2023-03-20T03:19:14;101776.72;;;8.27;73.70
54920;BME280;63804;53.120;8.764;2023-03-20T03:21:45;101771.03;;;8.17;73.98
54920;BME280;63804;53.120;8.764;2023-03-20T03:24:30;101766.84;;;8.13;73.81
54920;BME280;63804;53.120;8.764;2023-03-20T03:27:02;101768.38;;;8.17;73.66
54920;BME280;63804;53.120;8.764;2023-03-20T03:29:32;101759.59;;;8.17;74.00
54920;BME280;63804;53.120;8.764;2023-03-20T03:32:01;101758.66;;;8.18;73.76
54920;BME280;63804;53.120;8.764;2023-03-20T03:34:28;101755.16;;;8.17;73.43
54920;BME280;63804;53.120;8.764;2023-03-20T03:37:04;101757.78;;;8.17;73.58
54920;BME280;63804;53.120;8.764;2023-03-20T03:39:44;101756.84;;;8.18;73.53
54920;BME280;63804;53.120;8.764;2023-03-20T03:42:30;101752.44;;;8.19;73.52
54920;BME280;63804;53.120;8.764;2023-03-20T03:45:05;101755.25;;;8.16;73.85
54920;BME280;63804;53.120;8.764;2023-03-20T03:47:40;101751.50;;;8.20;73.83
54920;BME280;63804;53.120;8.764;2023-03-20T03:50:13;101751.75;;;8.15;73.82
54920;BME280;63804;53.120;8.764;2023-03-20T03:52:42;101744.81;;;8.13;73.96
54920;BME280;63804;53.120;8.764;2023-03-20T03:55:21;101750.72;;;8.18;73.92
54920;BME280;63804;53.120;8.764;2023-03-20T03:57:55;101750.81;;;8.16;73.69
54920;BME280;63804;53.120;8.764;2023-03-20T04:00:24;101753.94;;;8.07;74.22
54920;BME280;63804;53.120;8.764;2023-03-20T04:02:53;101744.31;;;8.06;74.37
54920;BME280;63804;53.120;8.764;2023-03-20T04:05:19;101760.44;;;8.01;74.74
54920;BME280;63804;53.120;8.764;2023-03-20T04:07:47;101748.91;;;8.02;74.70
54920;BME280;63804;53.120;8.764;2023-03-20T04:10:16;101755.84;;;8.05;74.83
54920;BME280;63804;53.120;8.764;2023-03-20T04:12:44;101761.66;;;7.96;74.86
54920;BME280;63804;53.120;8.764;2023-03-20T04:15:14;101755.84;;;8.05;74.92
54920;BME280;63804;53.120;8.764;2023-03-20T04:17:40;101753.78;;;8.10;74.59
54920;BME280;63804;53.120;8.764;2023-03-20T04:20:07;101756.25;;;8.13;74.50
54920;BME280;63804;53.120;8.764;2023-03-20T04:22:32;101758.38;;;8.07;74.51
54920;BME280;63804;53.120;8.764;2023-03-20T04:25:05;101758.06;;;8.13;74.78
54920;BME280;63804;53.120;8.764;2023-03-20T04:27:32;101747.81;;;8.07;74.90
54920;BME280;63804;53.120;8.764;2023-03-20T04:29:58;101755.00;;;8.05;74.98
54920;BME280;63804;53.120;8.764;2023-03-20T04:32:23;101752.88;;;8.11;74.70
54920;BME280;63804;53.120;8.764;2023-03-20T04:34:49;101749.78;;;8.19;74.79
54920;BME280;63804;53.120;8.764;2023-03-20T04:37:15;101742.19;;;8.13;74.68
54920;BME280;63804;53.120;8.764;2023-03-20T04:39:43;101738.00;;;8.09;75.11
54920;BME280;63804;53.120;8.764;2023-03-20T04:42:09;101739.69;;;8.10;75.36
54920;BME280;63804;53.120;8.764;2023-03-20T04:44:35;101736.09;;;8.11;75.38
54920;BME280;63804;53.120;8.764;2023-03-20T04:47:01;101737.16;;;8.08;75.57
54920;BME280;63804;53.120;8.764;2023-03-20T04:49:27;101730.06;;;8.09;75.26
54920;BME280;63804;53.120;8.764;2023-03-20T04:51:53;101735.94;;;8.14;75.31
54920;BME280;63804;53.120;8.764;2023-03-20T04:54:19;101742.09;;;8.14;75.57
54920;BME280;63804;53.120;8.764;2023-03-20T04:56:45;101736.78;;;8.14;75.24
54920;BME280;63804;53.120;8.764;2023-03-20T04:59:11;101739.19;;;8.03;75.69
54920;BME280;63804;53.120;8.764;2023-03-20T05:01:36;101748.00;;;8.04;75.77
54920;BME280;63804;53.120;8.764;2023-03-20T05:04:02;101741.91;;;8.01;75.90
54920;BME280;63804;53.120;8.764;2023-03-20T05:06:28;101751.66;;;8.01;75.89
54920;BME280;63804;53.120;8.764;2023-03-20T05:08:53;101748.75;;;8.06;75.89
54920;BME280;63804;53.120;8.764;2023-03-20T05:11:19;101758.91;;;8.13;75.46
54920;BME280;63804;53.120;8.764;2023-03-20T05:13:44;101751.81;;;8.14;75.64
54920;BME280;63804;53.120;8.764;2023-03-20T05:16:10;101751.91;;;8.12;75.46
54920;BME280;63804;53.120;8.764;2023-03-20T05:18:35;101752.41;;;8.03;76.09
54920;BME280;63804;53.120;8.764;2023-03-20T05:21:01;101770.00;;;8.04;75.96
54920;BME280;63804;53.120;8.764;2023-03-20T05:23:27;101754.72;;;8.09;75.95
54920;BME280;63804;53.120;8.764;2023-03-20T05:25:53;101760.13;;;8.08;75.88
54920;BME280;63804;53.120;8.764;2023-03-20T05:28:18;101760.72;;;8.13;75.91
54920;BME280;63804;53.120;8.764;2023-03-20T05:30:44;101758.22;;;8.10;75.77
54920;BME280;63804;53.120;8.764;2023-03-20T05:33:09;101752.94;;;8.10;75.94
54920;BME280;63804;53.120;8.764;2023-03-20T05:35:35;101764.88;;;8.01;76.04
54920;BME280;63804;53.120;8.764;2023-03-20T05:38:00;101770.09;;;8.02;76.05
54920;BME280;63804;53.120;8.764;2023-03-20T05:40:26;101775.06;;;8.09;75.88
54920;BME280;63804;53.120;8.764;2023-03-20T05:42:51;101770.88;;;8.05;75.87
54920;BME280;63804;53.120;8.764;2023-03-20T05:45:17;101770.72;;;8.08;75.92
54920;BME280;63804;53.120;8.764;2023-03-20T05:47:43;101769.59;;;8.12;75.77
54920;BME280;63804;53.120;8.764;2023-03-20T05:50:09;101770.44;;;8.12;75.70
54920;BME280;63804;53.120;8.764;2023-03-20T05:52:35;101779.13;;;8.14;75.29
54920;BME280;63804;53.120;8.764;2023-03-20T05:55:01;101779.22;;;8.13;75.60
54920;BME280;63804;53.120;8.764;2023-03-20T05:57:26;101786.53;;;8.25;75.08
54920;BME280;63804;53.120;8.764;2023-03-20T05:59:52;101787.00;;;8.16;75.48
54920;BME280;63804;53.120;8.764;2023-03-20T06:02:17;101783.31;;;8.18;75.76
54920;BME280;63804;53.120;8.764;2023-03-20T06:04:43;101781.34;;;8.22;75.58
54920;BME280;63804;53.120;8.764;2023-03-20T06:07:08;101781.44;;;8.20;75.57
54920;BME280;63804;53.120;8.764;2023-03-20T06:09:34;101780.94;;;8.14;75.74
54920;BME280;63804;53.120;8.764;2023-03-20T06:11:59;101788.72;;;8.17;75.57
54920;BME280;63804;53.120;8.764;2023-03-20T06:14:25;101794.16;;;8.14;76.07
54920;BME280;63804;53.120;8.764;2023-03-20T06:16:50;101795.63;;;8.19;75.94
54920;BME280;63804;53.120;8.764;2023-03-20T06:19:19;101782.94;;;8.26;75.17
54920;BME280;63804;53.120;8.764;2023-03-20T06:21:46;101787.31;;;8.27;74.89
54920;BME280;63804;53.120;8.764;2023-03-20T06:24:12;101784.78;;;8.24;74.82
54920;BME280;63804;53.120;8.764;2023-03-20T06:26:38;101789.09;;;8.27;74.71
54920;BME280;63804;53.120;8.764;2023-03-20T06:29:03;101793.03;;;8.35;74.45
54920;BME280;63804;53.120;8.764;2023-03-20T06:31:29;101786.69;;;8.38;74.25
54920;BME280;63804;53.120;8.764;2023-03-20T06:33:54;101783.44;;;8.33;74.17
54920;BME280;63804;53.120;8.764;2023-03-20T06:36:21;101785.25;;;8.32;74.22
54920;BME280;63804;53.120;8.764;2023-03-20T06:38:46;101791.22;;;8.36;73.97
54920;BME280;63804;53.120;8.764;2023-03-20T06:41:12;101793.88;;;8.36;73.83
54920;BME280;63804;53.120;8.764;2023-03-20T06:43:37;101784.72;;;8.25;73.90
54920;BME280;63804;53.120;8.764;2023-03-20T06:46:04;101789.53;;;8.35;73.68
54920;BME280;63804;53.120;8.764;2023-03-20T06:48:31;101800.53;;;8.43;73.43
54920;BME280;63804;53.120;8.764;2023-03-20T06:50:57;101805.16;;;8.39;73.05
54920;BME280;63804;53.120;8.764;2023-03-20T06:53:22;101799.69;;;8.42;72.47
54920;BME280;63804;53.120;8.764;2023-03-20T06:55:49;101817.09;;;8.46;71.84
54920;BME280;63804;53.120;8.764;2023-03-20T06:58:16;101808.75;;;8.38;72.16
54920;BME280;63804;53.120;8.764;2023-03-20T07:00:42;101807.25;;;8.48;71.11
54920;BME280;63804;53.120;8.764;2023-03-20T07:03:08;101809.00;;;8.49;71.10
54920;BME280;63804;53.120;8.764;2023-03-20T07:05:34;101810.69;;;8.51;71.10
54920;BME280;63804;53.120;8.764;2023-03-20T07:08:00;101805.72;;;8.44;70.89
54920;BME280;63804;53.120;8.764;2023-03-20T07:10:26;101803.06;;;8.44;71.07
54920;BME280;63804;53.120;8.764;2023-03-20T07:12:52;101805.47;;;8.49;70.70
54920;BME280;63804;53.120;8.764;2023-03-20T07:15:18;101807.25;;;8.48;70.78
54920;BME280;63804;53.120;8.764;2023-03-20T07:17:43;101806.81;;;8.56;70.10
54920;BME280;63804;53.120;8.764;2023-03-20T07:20:09;101803.69;;;8.49;70.15
54920;BME280;63804;53.120;8.764;2023-03-20T07:22:36;101806.94;;;8.55;70.03
54920;BME280;63804;53.120;8.764;2023-03-20T07:25:02;101806.66;;;8.59;69.89
54920;BME280;63804;53.120;8.764;2023-03-20T07:27:27;101811.09;;;8.59;69.56
54920;BME280;63804;53.120;8.764;2023-03-20T07:29:53;101812.38;;;8.52;69.64
54920;BME280;63804;53.120;8.764;2023-03-20T07:32:18;101816.94;;;8.49;69.88
54920;BME280;63804;53.120;8.764;2023-03-20T07:34:45;101817.53;;;8.55;69.24
54920;BME280;63804;53.120;8.764;2023-03-20T07:37:12;101811.44;;;8.53;69.27
54920;BME280;63804;53.120;8.764;2023-03-20T07:39:37;101823.94;;;8.51;68.91
54920;BME280;63804;53.120;8.764;2023-03-20T07:42:03;101813.25;;;8.52;68.69
54920;BME280;63804;53.120;8.764;2023-03-20T07:44:28;101819.06;;;8.59;68.34
54920;BME280;63804;53.120;8.764;2023-03-20T07:46:54;101824.09;;;8.47;68.34
54920;BME280;63804;53.120;8.764;2023-03-20T07:49:20;101825.56;;;8.53;68.03
54920;BME280;63804;53.120;8.764;2023-03-20T07:51:47;101823.84;;;8.52;67.55
54920;BME280;63804;53.120;8.764;2023-03-20T07:54:13;101833.00;;;8.46;67.41
54920;BME280;63804;53.120;8.764;2023-03-20T07:56:39;101829.13;;;8.52;67.53
54920;BME280;63804;53.120;8.764;2023-03-20T07:59:05;101823.50;;;8.58;67.43
54920;BME280;63804;53.120;8.764;2023-03-20T08:01:30;101825.38;;;8.56;67.39
54920;BME280;63804;53.120;8.764;2023-03-20T08:03:56;101822.13;;;8.67;66.90
54920;BME280;63804;53.120;8.764;2023-03-20T08:06:21;101825.72;;;8.66;66.61
54920;BME280;63804;53.120;8.764;2023-03-20T08:08:47;101829.63;;;8.74;66.46
54920;BME280;63804;53.120;8.764;2023-03-20T08:11:16;101828.44;;;8.80;66.07
54920;BME280;63804;53.120;8.764;2023-03-20T08:13:41;101824.84;;;8.81;65.94
54920;BME280;63804;53.120;8.764;2023-03-20T08:16:07;101830.72;;;8.86;65.89
54920;BME280;63804;53.120;8.764;2023-03-20T08:18:33;101821.06;;;8.85;65.25
54920;BME280;63804;53.120;8.764;2023-03-20T08:20:59;101831.50;;;8.88;65.51
54920;BME280;63804;53.120;8.764;2023-03-20T08:23:24;101833.75;;;8.80;65.48
54920;BME280;63804;53.120;8.764;2023-03-20T08:25:51;101845.91;;;8.68;65.84
54920;BME280;63804;53.120;8.764;2023-03-20T08:28:18;101847.59;;;8.69;65.80
54920;BME280;63804;53.120;8.764;2023-03-20T08:30:44;101853.13;;;8.81;65.18
54920;BME280;63804;53.120;8.764;2023-03-20T08:33:10;101853.41;;;8.76;65.09
54920;BME280;63804;53.120;8.764;2023-03-20T08:35:36;101850.75;;;8.76;65.56
54920;BME280;63804;53.120;8.764;2023-03-20T08:38:02;101844.06;;;8.85;65.30
54920;BME280;63804;53.120;8.764;2023-03-20T08:40:28;101846.19;;;8.94;64.95
54920;BME280;63804;53.120;8.764;2023-03-20T08:42:54;101856.09;;;8.90;64.31
54920;BME280;63804;53.120;8.764;2023-03-20T08:45:19;101854.13;;;8.94;64.53
54920;BME280;63804;53.120;8.764;2023-03-20T08:47:48;101843.59;;;9.08;64.14
54920;BME280;63804;53.120;8.764;2023-03-20T08:50:15;101850.25;;;9.15;63.68
54920;BME280;63804;53.120;8.764;2023-03-20T08:52:40;101842.38;;;9.14;63.63
54920;BME280;63804;53.120;8.764;2023-03-20T08:55:12;101840.94;;;9.08;63.56
54920;BME280;63804;53.120;8.764;2023-03-20T08:57:39;101839.47;;;9.18;63.27
54920;BME280;63804;53.120;8.764;2023-03-20T09:00:06;101837.66;;;9.19;62.95
54920;BME280;63804;53.120;8.764;2023-03-20T09:02:40;101838.00;;;9.13;62.91
54920;BME280;63804;53.120;8.764;2023-03-20T09:05:07;101833.88;;;9.23;62.05
54920;BME280;63804;53.120;8.764;2023-03-20T09:07:32;101840.16;;;9.36;61.66
54920;BME280;63804;53.120;8.764;2023-03-20T09:09:58;101823.09;;;9.40;61.52
54920;BME280;63804;53.120;8.764;2023-03-20T09:12:23;101831.06;;;9.26;61.64
54920;BME280;63804;53.120;8.764;2023-03-20T09:14:49;101831.75;;;9.14;60.81
54920;BME280;63804;53.120;8.764;2023-03-20T09:17:14;101838.34;;;9.22;60.91
54920;BME280;63804;53.120;8.764;2023-03-20T09:19:40;101832.22;;;9.51;60.23
54920;BME280;63804;53.120;8.764;2023-03-20T09:22:12;101839.75;;;9.73;59.94
54920;BME280;63804;53.120;8.764;2023-03-20T09:24:37;101835.47;;;9.70;60.00
54920;BME280;63804;53.120;8.764;2023-03-20T09:27:03;101845.13;;;9.71;59.77
54920;BME280;63804;53.120;8.764;2023-03-20T09:29:28;101836.50;;;9.67;59.32
54920;BME280;63804;53.120;8.764;2023-03-20T09:31:54;101847.88;;;9.55;59.89
54920;BME280;63804;53.120;8.764;2023-03-20T09:34:19;101837.53;;;9.51;60.00
54920;BME280;63804;53.120;8.764;2023-03-20T09:36:51;101846.72;;;9.59;59.63
54920;BME280;63804;53.120;8.764;2023-03-20T09:39:16;101841.25;;;9.62;59.65
54920;BME280;63804;53.120;8.764;2023-03-20T09:41:49;101854.69;;;9.59;59.20
54920;BME280;63804;53.120;8.764;2023-03-20T09:44:46;101842.94;;;9.63;58.92
54920;BME280;63804;53.120;8.764;2023-03-20T09:47:31;101840.13;;;9.81;57.92
54920;BME280;63804;53.120;8.764;2023-03-20T09:50:21;101839.78;;;9.87;57.90
54920;BME280;63804;53.120;8.764;2023-03-20T09:55:35;101840.53;;;10.03;58.23
54920;BME280;63804;53.120;8.764;2023-03-20T09:58:05;101840.84;;;9.99;58.26
54920;BME280;63804;53.120;8.764;2023-03-20T10:00:34;101846.22;;;9.97;58.42
54920;BME280;63804;53.120;8.764;2023-03-20T10:03:47;101830.00;;;10.02;57.62
54920;BME280;63804;53.120;8.764;2023-03-20T10:05:58;101839.41;;;10.07;57.56
54920;BME280;63804;53.120;8.764;2023-03-20T10:08:31;101843.19;;;10.03;57.41
54920;BME280;63804;53.120;8.764;2023-03-20T10:19:27;101836.91;;;9.76;57.11
54920;BME280;63804;53.120;8.764;2023-03-20T10:24:28;101836.31;;;9.70;57.78
54920;BME280;63804;53.120;8.764;2023-03-20T10:27:05;101838.31;;;9.81;56.69
54920;BME280;63804;53.120;8.764;2023-03-20T10:29:53;101832.88;;;9.84;57.15
54920;BME280;63804;53.120;8.764;2023-03-20T10:32:28;101828.78;;;10.07;56.40
54920;BME280;63804;53.120;8.764;2023-03-20T10:35:13;101827.44;;;10.14;54.79
54920;BME280;63804;53.120;8.764;2023-03-20T10:40:27;101820.88;;;10.20;56.08
54920;BME280;63804;53.120;8.764;2023-03-20T10:43:42;101826.31;;;10.04;56.29
54920;BME280;63804;53.120;8.764;2023-03-20T10:46:03;101826.97;;;9.79;55.20
54920;BME280;63804;53.120;8.764;2023-03-20T10:50:58;101819.06;;;10.35;55.12
54920;BME280;63804;53.120;8.764;2023-03-20T10:53:29;101810.22;;;10.49;54.12
54920;BME280;63804;53.120;8.764;2023-03-20T10:55:59;101808.56;;;10.60;53.72
54920;BME280;63804;53.120;8.764;2023-03-20T10:58:30;101803.31;;;10.59;53.91
54920;BME280;63804;53.120;8.764;2023-03-20T11:00:57;101795.19;;;10.48;54.12
54920;BME280;63804;53.120;8.764;2023-03-20T11:03:28;101792.28;;;10.52;54.31
54920;BME280;63804;53.120;8.764;2023-03-20T11:08:40;101792.66;;;10.46;54.23
54920;BME280;63804;53.120;8.764;2023-03-20T11:11:07;101792.81;;;10.57;54.19
54920;BME280;63804;53.120;8.764;2023-03-20T11:13:41;101802.41;;;10.60;53.67
54920;BME280;63804;53.120;8.764;2023-03-20T11:16:17;101793.22;;;10.78;53.01
54920;BME280;63804;53.120;8.764;2023-03-20T11:18:43;101799.06;;;10.83;53.17
54920;BME280;63804;53.120;8.764;2023-03-20T11:21:24;101790.47;;;10.92;52.60
54920;BME280;63804;53.120;8.764;2023-03-20T11:23:50;101784.09;;;10.82;53.14
54920;BME280;63804;53.120;8.764;2023-03-20T11:26:37;101782.13;;;10.72;51.46
54920;BME280;63804;53.120;8.764;2023-03-20T11:29:25;101786.59;;;10.71;52.14
54920;BME280;63804;53.120;8.764;2023-03-20T11:31:53;101790.31;;;10.68;52.95
54920;BME280;63804;53.120;8.764;2023-03-20T11:34:23;101786.78;;;10.68;52.62
54920;BME280;63804;53.120;8.764;2023-03-20T11:36:59;101778.25;;;10.63;51.98
54920;BME280;63804;53.120;8.764;2023-03-20T11:39:28;101778.88;;;10.54;51.63
54920;BME280;63804;53.120;8.764;2023-03-20T11:41:58;101774.31;;;10.56;53.13
54920;BME280;63804;53.120;8.764;2023-03-20T11:44:28;101778.41;;;10.47;52.48
54920;BME280;63804;53.120;8.764;2023-03-20T11:46:56;101766.94;;;10.47;52.75
54920;BME280;63804;53.120;8.764;2023-03-20T11:49:23;101768.91;;;10.57;52.31
54920;BME280;63804;53.120;8.764;2023-03-20T11:51:50;101772.09;;;10.62;52.65
54920;BME280;63804;53.120;8.764;2023-03-20T11:54:21;101779.13;;;10.63;52.05
54920;BME280;63804;53.120;8.764;2023-03-20T11:56:56;101780.63;;;10.67;51.84
54920;BME280;63804;53.120;8.764;2023-03-20T11:59:33;101772.16;;;10.88;51.60
54920;BME280;63804;53.120;8.764;2023-03-20T12:02:11;101767.75;;;11.01;51.43
54920;BME280;63804;53.120;8.764;2023-03-20T12:04:42;101770.41;;;11.01;52.00
54920;BME280;63804;53.120;8.764;2023-03-20T12:07:13;101779.97;;;11.04;51.49
54920;BME280;63804;53.120;8.764;2023-03-20T12:09:53;101775.41;;;11.18;51.11
54920;BME280;63804;53.120;8.764;2023-03-20T12:13:00;101771.06;;;11.17;49.82
54920;BME280;63804;53.120;8.764;2023-03-20T12:15:30;101773.97;;;11.27;50.53
54920;BME280;63804;53.120;8.764;2023-03-20T12:28:23;101763.94;;;11.05;51.02
54920;BME280;63804;53.120;8.764;2023-03-20T12:36:33;101776.38;;;10.65;51.10
54920;BME280;63804;53.120;8.764;2023-03-20T12:39:05;101766.25;;;10.57;51.91
54920;BME280;63804;53.120;8.764;2023-03-20T12:46:47;101761.78;;;10.58;51.97
54920;BME280;63804;53.120;8.764;2023-03-20T12:52:12;101765.03;;;10.49;52.77
54920;BME280;63804;53.120;8.764;2023-03-20T12:58:00;101754.50;;;10.47;52.12
54920;BME280;63804;53.120;8.764;2023-03-20T13:00:46;101756.66;;;10.55;51.59
54920;BME280;63804;53.120;8.764;2023-03-20T13:03:35;101751.34;;;10.55;51.26
54920;BME280;63804;53.120;8.764;2023-03-20T13:06:13;101744.13;;;10.57;51.89
54920;BME280;63804;53.120;8.764;2023-03-20T13:13:45;101739.31;;;10.49;52.62
54920;BME280;63804;53.120;8.764;2023-03-20T13:19:13;101736.66;;;10.49;52.71
54920;BME280;63804;53.120;8.764;2023-03-20T13:21:56;101733.81;;;10.52;51.92
54920;BME280;63804;53.120;8.764;2023-03-20T13:24:49;101742.72;;;10.51;51.88
54920;BME280;63804;53.120;8.764;2023-03-20T13:33:04;101735.91;;;10.87;51.06
54920;BME280;63804;53.120;8.764;2023-03-20T13:35:54;101730.78;;;10.71;51.57
54920;BME280;63804;53.120;8.764;2023-03-20T13:38:23;101732.16;;;10.64;52.26
54920;BME280;63804;53.120;8.764;2023-03-20T13:40:59;101723.75;;;10.70;51.30
54920;BME280;63804;53.120;8.764;2023-03-20T13:46:21;101728.91;;;10.59;52.28
54920;BME280;63804;53.120;8.764;2023-03-20T13:48:49;101719.50;;;10.67;52.07
54920;BME280;63804;53.120;8.764;2023-03-20T13:54:00;101730.00;;;10.56;51.61
54920;BME280;63804;53.120;8.764;2023-03-20T14:04:38;101720.81;;;10.75;52.33
54920;BME280;63804;53.120;8.764;2023-03-20T14:07:27;101713.34;;;10.67;51.47
54920;BME280;63804;53.120;8.764;2023-03-20T14:09:54;101720.09;;;10.58;52.73
54920;BME280;63804;53.120;8.764;2023-03-20T14:12:23;101719.81;;;10.36;53.11
54920;BME280;63804;53.120;8.764;2023-03-20T14:14:55;101723.44;;;10.35;53.27
54920;BME280;63804;53.120;8.764;2023-03-20T14:17:29;101717.28;;;10.34;53.20
54920;BME280;63804;53.120;8.764;2023-03-20T14:19:56;101713.84;;;10.32;53.57
54920;BME280;63804;53.120;8.764;2023-03-20T14:22:35;101727.44;;;10.28;53.42
54920;BME280;63804;53.120;8.764;2023-03-20T14:25:05;101721.09;;;10.30;53.60
54920;BME280;63804;53.120;8.764;2023-03-20T14:27:56;101714.94;;;10.30;53.00
54920;BME280;63804;53.120;8.764;2023-03-20T14:32:59;101715.34;;;10.09;53.61
54920;BME280;63804;53.120;8.764;2023-03-20T14:35:26;101715.00;;;10.01;54.27
54920;BME280;63804;53.120;8.764;2023-03-20T14:38:25;101713.31;;;10.00;53.84
54920;BME280;63804;53.120;8.764;2023-03-20T14:41:21;101709.53;;;9.90;54.63
54920;BME280;63804;53.120;8.764;2023-03-20T14:43:59;101709.44;;;9.91;55.04
54920;BME280;63804;53.120;8.764;2023-03-20T14:46:51;101704.88;;;9.93;55.16
54920;BME280;63804;53.120;8.764;2023-03-20T14:49:25;101699.66;;;9.92;55.70
54920;BME280;63804;53.120;8.764;2023-03-20T14:55:14;101710.59;;;9.87;56.10
54920;BME280;63804;53.120;8.764;2023-03-20T15:01:01;101711.91;;;9.66;57.25
54920;BME280;63804;53.120;8.764;2023-03-20T15:03:29;101716.25;;;9.67;57.66